createdAt,value
2023-04-09T00:01:55.985Z,3.19
2023-04-09T00:04:23.700Z,3.13
2023-04-09T00:06:50.482Z,3.10
2023-04-09T00:09:17.124Z,3.08
2023-04-09T00:11:43.696Z,3.02
2023-04-09T00:14:10.373Z,2.96
2023-04-09T00:16:37.236Z,2.92
2023-04-09T00:19:03.928Z,2.88
2023-04-09T00:21:30.787Z,2.81
2023-04-09T00:23:57.459Z,2.78
2023-04-09T00:26:24.075Z,2.72
2023-04-09T00:28:50.986Z,2.68
2023-04-09T00:31:19.417Z,2.61
2023-04-09T00:33:47.151Z,2.58
2023-04-09T00:36:13.750Z,2.54
2023-04-09T00:38:40.720Z,2.52
2023-04-09T00:41:07.339Z,2.52
2023-04-09T00:43:34.004Z,2.51
2023-04-09T00:46:01.015Z,2.45
2023-04-09T00:48:27.949Z,2.42
2023-04-09T00:50:54.570Z,2.36
2023-04-09T00:53:21.217Z,2.30
2023-04-09T00:55:47.895Z,2.24
2023-04-09T00:58:14.766Z,2.19
2023-04-09T01:00:41.413Z,2.14
2023-04-09T01:03:08.724Z,2.10
2023-04-09T01:05:42.578Z,2.06
2023-04-09T01:08:22.284Z,2.05
2023-04-09T01:11:16.129Z,2.03
2023-04-09T01:13:51.872Z,2.02
2023-04-09T01:16:20.749Z,2.00
2023-04-09T01:18:55.220Z,2.09
2023-04-09T01:21:31.135Z,2.16
2023-04-09T01:24:11.271Z,2.30
2023-04-09T01:26:53.206Z,2.47
2023-04-09T01:29:21.545Z,2.60
2023-04-09T01:31:49.404Z,2.72
2023-04-09T01:34:17.857Z,2.84
2023-04-09T01:36:52.241Z,3.02
2023-04-09T01:39:19.300Z,3.16
2023-04-09T01:41:46.817Z,3.26
2023-04-09T01:44:14.052Z,3.37
2023-04-09T01:46:41.205Z,3.47
2023-04-09T01:49:09.223Z,3.56
2023-04-09T01:51:37.008Z,3.64
2023-04-09T01:54:04.819Z,3.74
2023-04-09T01:56:45.566Z,3.82
2023-04-09T01:59:12.672Z,3.85
2023-04-09T02:01:46.516Z,3.88
2023-04-09T02:04:35.414Z,3.88
2023-04-09T02:07:10.070Z,3.88
2023-04-09T02:09:39.249Z,3.90
2023-04-09T02:12:10.602Z,3.92
2023-04-09T02:14:38.275Z,3.95
2023-04-09T02:17:05.018Z,3.97
2023-04-09T02:19:43.037Z,3.92
2023-04-09T02:22:10.256Z,3.90
2023-04-09T02:24:37.012Z,3.99
2023-04-09T02:27:04.368Z,4.03
2023-04-09T02:29:31.236Z,4.13
2023-04-09T02:31:57.831Z,4.22
2023-04-09T02:34:24.922Z,4.23
2023-04-09T02:36:51.534Z,4.23
2023-04-09T02:39:18.388Z,4.25
2023-04-09T02:41:45.059Z,4.22
2023-04-09T02:44:11.771Z,4.23
2023-04-09T02:46:39.037Z,4.26
2023-04-09T02:49:05.728Z,4.28
2023-04-09T02:51:35.619Z,4.26
2023-04-09T02:54:03.476Z,4.33
2023-04-09T02:56:30.740Z,4.36
2023-04-09T02:58:57.345Z,4.42
2023-04-09T03:01:23.941Z,4.39
2023-04-09T03:03:51.083Z,4.39
2023-04-09T03:06:18.444Z,4.43
2023-04-09T03:08:45.537Z,4.45
2023-04-09T03:11:12.148Z,4.45
2023-04-09T03:13:38.697Z,4.48
2023-04-09T03:16:05.641Z,4.49
2023-04-09T03:18:32.407Z,4.52
2023-04-09T03:20:58.938Z,4.52
2023-04-09T03:23:25.531Z,4.54
2023-04-09T03:26:06.752Z,4.53
2023-04-09T03:28:33.290Z,4.57
2023-04-09T03:30:59.868Z,4.66
2023-04-09T03:33:26.508Z,4.67
2023-04-09T03:35:53.202Z,4.64
2023-04-09T03:38:20.035Z,4.69
2023-04-09T03:40:46.631Z,4.67
2023-04-09T03:43:13.187Z,4.69
2023-04-09T03:45:39.713Z,4.67
2023-04-09T03:48:06.371Z,4.70
2023-04-09T03:50:41.194Z,4.71
2023-04-09T03:53:07.980Z,4.73
2023-04-09T03:55:34.651Z,4.76
2023-04-09T03:58:01.153Z,4.83
2023-04-09T04:00:27.717Z,4.88
2023-04-09T04:02:54.507Z,4.90
2023-04-09T04:05:24.466Z,4.90
2023-04-09T04:07:51.170Z,4.87
2023-04-09T04:10:17.831Z,4.87
2023-04-09T04:12:44.425Z,4.88
2023-04-09T04:15:11.301Z,4.87
2023-04-09T04:17:37.896Z,4.90
2023-04-09T04:20:04.750Z,4.90
2023-04-09T04:22:31.348Z,4.94
2023-04-09T04:24:57.877Z,4.97
2023-04-09T04:27:24.462Z,4.95
2023-04-09T04:29:51.351Z,4.97
2023-04-09T04:32:17.971Z,4.95
2023-04-09T04:34:49.024Z,4.94
2023-04-09T04:37:15.557Z,4.98
2023-04-09T04:39:42.084Z,5.05
2023-04-09T04:42:09.633Z,5.10
2023-04-09T04:44:36.167Z,5.05
2023-04-09T04:47:02.707Z,5.04
2023-04-09T04:49:30.269Z,5.05
2023-04-09T04:51:56.907Z,5.14
2023-04-09T04:54:23.497Z,5.18
2023-04-09T04:56:50.164Z,5.18
2023-04-09T04:59:16.672Z,5.24
2023-04-09T05:01:43.311Z,5.25
2023-04-09T05:04:10.071Z,5.28
2023-04-09T05:06:36.791Z,5.24
2023-04-09T05:09:03.452Z,5.25
2023-04-09T05:11:30.403Z,5.20
2023-04-09T05:13:57.021Z,5.24
2023-04-09T05:16:23.592Z,5.25
2023-04-09T05:18:50.921Z,5.17
2023-04-09T05:21:17.696Z,5.17
2023-04-09T05:23:44.263Z,5.20
2023-04-09T05:26:10.819Z,5.27
2023-04-09T05:28:37.943Z,5.32
2023-04-09T05:31:04.660Z,5.36
2023-04-09T05:33:37.822Z,5.35
2023-04-09T05:36:04.717Z,5.34
2023-04-09T05:38:31.492Z,5.43
2023-04-09T05:40:58.197Z,5.52
2023-04-09T05:43:24.706Z,5.51
2023-04-09T05:45:51.373Z,5.45
2023-04-09T05:48:19.570Z,5.46
2023-04-09T05:50:54.655Z,5.53
2023-04-09T05:53:22.431Z,5.62
2023-04-09T05:55:51.919Z,5.59
2023-04-09T05:58:19.001Z,5.59
2023-04-09T06:00:45.645Z,5.60
2023-04-09T06:03:12.626Z,5.52
2023-04-09T06:05:39.312Z,5.52
2023-04-09T06:08:06.129Z,5.55
2023-04-09T06:10:33.131Z,5.55
2023-04-09T06:12:59.752Z,5.65
2023-04-09T06:15:26.857Z,5.66
2023-04-09T06:17:53.544Z,5.70
2023-04-09T06:20:20.171Z,5.69
2023-04-09T06:22:47.823Z,5.80
2023-04-09T06:25:14.476Z,5.79
2023-04-09T06:27:40.966Z,5.76
2023-04-09T06:30:08.376Z,5.80
2023-04-09T06:32:46.908Z,5.76
2023-04-09T06:35:20.557Z,5.80
2023-04-09T06:37:47.127Z,5.87
2023-04-09T06:40:14.435Z,5.90
2023-04-09T06:42:40.990Z,5.97
2023-04-09T06:45:08.600Z,6.10
2023-04-09T06:47:35.984Z,6.11
2023-04-09T06:50:03.082Z,6.09
2023-04-09T06:52:30.820Z,6.03
2023-04-09T06:54:57.375Z,5.93
2023-04-09T06:57:23.960Z,5.94
2023-04-09T06:59:50.500Z,5.96
2023-04-09T07:02:17.254Z,6.02
2023-04-09T07:04:43.963Z,6.04
2023-04-09T07:07:10.579Z,6.09
2023-04-09T07:09:37.131Z,6.10
2023-04-09T07:12:03.662Z,6.09
2023-04-09T07:14:30.601Z,6.16
2023-04-09T07:16:57.247Z,6.17
2023-04-09T07:19:23.911Z,6.21
2023-04-09T07:21:50.947Z,6.23
2023-04-09T07:24:17.522Z,6.23
2023-04-09T07:26:44.121Z,6.18
2023-04-09T07:29:11.019Z,6.25
2023-04-09T07:31:37.783Z,6.25
2023-04-09T07:34:04.523Z,6.35
2023-04-09T07:36:31.749Z,6.37
2023-04-09T07:38:58.365Z,6.52
2023-04-09T07:41:24.953Z,6.55
2023-04-09T07:43:51.667Z,6.41
2023-04-09T07:46:20.254Z,6.44
2023-04-09T07:48:48.433Z,6.48
2023-04-09T07:51:15.311Z,6.38
2023-04-09T07:53:42.120Z,6.46
2023-04-09T07:56:08.740Z,6.55
2023-04-09T07:58:37.867Z,6.69
2023-04-09T08:01:04.805Z,6.59
2023-04-09T08:03:31.720Z,6.46
2023-04-09T08:05:58.552Z,6.64
2023-04-09T08:08:25.004Z,6.79
2023-04-09T08:10:51.522Z,6.89
2023-04-09T08:13:18.050Z,6.85
2023-04-09T08:15:44.607Z,6.89
2023-04-09T08:18:11.154Z,6.99
2023-04-09T08:20:37.842Z,7.07
2023-04-09T08:23:04.523Z,7.09
2023-04-09T08:25:31.002Z,7.07
2023-04-09T08:27:58.091Z,6.93
2023-04-09T08:30:24.725Z,6.91
2023-04-09T08:32:51.299Z,7.03
2023-04-09T08:35:17.922Z,6.78
2023-04-09T08:37:44.600Z,7.07
2023-04-09T08:40:11.913Z,7.12
2023-04-09T08:42:47.458Z,7.23
2023-04-09T08:45:14.078Z,7.24
2023-04-09T08:47:44.715Z,7.24
2023-04-09T08:50:11.460Z,7.27
2023-04-09T08:52:38.375Z,7.37
2023-04-09T08:55:06.057Z,7.31
2023-04-09T08:57:40.466Z,7.38
2023-04-09T09:00:08.549Z,7.26
2023-04-09T09:02:35.782Z,7.35
2023-04-09T09:05:02.494Z,7.61
2023-04-09T09:07:29.729Z,7.65
2023-04-09T09:09:58.040Z,7.47
2023-04-09T09:12:51.669Z,7.64
2023-04-09T09:15:29.425Z,7.74
2023-04-09T09:17:58.565Z,7.81
2023-04-09T09:20:26.555Z,7.88
2023-04-09T09:22:55.844Z,7.88
2023-04-09T09:25:25.695Z,7.88
2023-04-09T09:27:53.128Z,8.09
2023-04-09T09:30:24.481Z,8.09
2023-04-09T09:32:55.229Z,8.09
2023-04-09T09:35:22.331Z,8.25
2023-04-09T09:38:01.980Z,8.36
2023-04-09T09:40:28.873Z,8.39
2023-04-09T09:42:57.296Z,8.50
2023-04-09T09:45:25.307Z,8.33
2023-04-09T09:47:53.833Z,8.36
2023-04-09T09:50:25.124Z,8.47
2023-04-09T09:52:57.897Z,8.52
2023-04-09T09:55:27.054Z,8.61
2023-04-09T09:57:55.802Z,8.65
2023-04-09T10:00:25.370Z,8.71
2023-04-09T10:03:08.114Z,8.81
2023-04-09T10:05:38.068Z,8.85
2023-04-09T10:08:04.842Z,8.91
2023-04-09T10:10:32.091Z,9.05
2023-04-09T10:12:59.184Z,9.08
2023-04-09T10:15:28.563Z,9.18
2023-04-09T10:17:56.142Z,9.36
2023-04-09T10:20:43.738Z,9.39
2023-04-09T10:23:19.589Z,9.50
2023-04-09T10:25:46.379Z,9.49
2023-04-09T10:28:17.895Z,9.64
2023-04-09T10:30:44.745Z,9.66
2023-04-09T10:33:26.364Z,9.46
2023-04-09T10:35:54.776Z,9.63
2023-04-09T10:38:38.484Z,9.53
2023-04-09T10:41:12.918Z,9.67
2023-04-09T10:43:39.693Z,10.00
2023-04-09T10:46:26.823Z,10.08
2023-04-09T10:49:15.699Z,9.55
2023-04-09T10:51:47.870Z,9.59
2023-04-09T10:54:32.827Z,9.86
2023-04-09T10:57:11.412Z,10.13
2023-04-09T10:59:43.287Z,10.17
2023-04-09T11:02:19.658Z,10.10
2023-04-09T11:05:08.164Z,10.22
2023-04-09T11:07:40.384Z,10.30
2023-04-09T11:10:07.796Z,10.44
2023-04-09T11:12:34.377Z,10.00
2023-04-09T11:15:00.928Z,10.31
2023-04-09T11:17:28.411Z,10.41
2023-04-09T11:19:55.908Z,10.61
2023-04-09T11:22:22.476Z,10.63
2023-04-09T11:24:50.842Z,10.80
2023-04-09T11:27:20.871Z,10.48
2023-04-09T11:29:47.411Z,10.59
2023-04-09T11:32:13.938Z,10.75
2023-04-09T11:34:40.906Z,10.77
2023-04-09T11:37:09.313Z,10.72
2023-04-09T11:39:39.154Z,10.83
2023-04-09T11:42:05.761Z,11.02
2023-04-09T11:44:32.299Z,11.06
2023-04-09T11:46:59.730Z,11.38
2023-04-09T11:49:26.541Z,11.55
2023-04-09T11:51:53.292Z,11.94
2023-04-09T11:54:19.793Z,12.29
2023-04-09T11:56:55.585Z,12.32
2023-04-09T11:59:22.205Z,12.81
2023-04-09T12:01:51.305Z,12.98
2023-04-09T12:04:21.633Z,13.42
2023-04-09T12:06:48.457Z,14.51
2023-04-09T12:09:16.151Z,14.30
2023-04-09T12:11:44.159Z,14.76
2023-04-09T12:14:17.646Z,14.68
2023-04-09T12:16:45.035Z,14.91
2023-04-09T12:19:13.095Z,16.30
2023-04-09T12:21:52.997Z,17.18
2023-04-09T12:24:21.588Z,18.38
2023-04-09T12:26:49.554Z,18.27
2023-04-09T12:29:18.132Z,18.57
2023-04-09T12:31:45.504Z,18.24
2023-04-09T12:34:12.591Z,18.71
2023-04-09T12:36:43.712Z,18.94
2023-04-09T12:39:10.527Z,17.53
2023-04-09T12:41:37.285Z,17.15
2023-04-09T12:44:04.975Z,17.61
2023-04-09T12:46:32.431Z,17.68
2023-04-09T12:49:00.054Z,18.16
2023-04-09T12:51:26.698Z,18.20
2023-04-09T12:53:53.371Z,19.05
2023-04-09T12:56:20.242Z,19.51
2023-04-09T12:58:46.846Z,19.67
2023-04-09T13:01:13.670Z,19.84
2023-04-09T13:03:41.484Z,20.33
2023-04-09T13:06:08.598Z,19.59
2023-04-09T13:08:35.182Z,20.25
2023-04-09T13:11:01.786Z,20.52
2023-04-09T13:13:28.715Z,20.08
2023-04-09T13:15:55.440Z,20.39
2023-04-09T13:18:22.460Z,20.40
2023-04-09T13:20:49.085Z,19.97
2023-04-09T13:23:15.907Z,20.01
2023-04-09T13:25:42.492Z,19.71
2023-04-09T13:28:09.168Z,20.40
2023-04-09T13:30:35.991Z,20.02
2023-04-09T13:33:02.754Z,19.81
2023-04-09T13:35:30.191Z,19.77
2023-04-09T13:37:56.760Z,20.31
2023-04-09T13:40:23.330Z,20.46
2023-04-09T13:42:49.947Z,19.51
2023-04-09T13:45:16.660Z,19.12
2023-04-09T13:47:43.280Z,19.59
2023-04-09T13:50:10.518Z,19.37
2023-04-09T13:52:37.152Z,19.56
2023-04-09T13:55:04.704Z,19.92
2023-04-09T13:57:31.466Z,20.11
2023-04-09T14:00:01.720Z,19.85
2023-04-09T14:02:29.338Z,19.59
2023-04-09T14:04:56.957Z,19.84
2023-04-09T14:07:23.547Z,19.70
2023-04-09T14:09:51.125Z,19.37
2023-04-09T14:12:17.690Z,19.78
2023-04-09T14:14:44.229Z,19.74
2023-04-09T14:17:10.748Z,19.59
2023-04-09T14:19:37.845Z,19.47
2023-04-09T14:22:07.201Z,19.16
2023-04-09T14:24:39.584Z,18.57
2023-04-09T14:27:07.621Z,18.44
2023-04-09T14:29:34.865Z,18.71
2023-04-09T14:32:01.443Z,18.62
2023-04-09T14:34:31.432Z,18.69
2023-04-09T14:36:58.087Z,18.33
2023-04-09T14:39:24.897Z,18.13
2023-04-09T14:41:52.188Z,17.59
2023-04-09T14:44:18.799Z,17.31
2023-04-09T14:46:45.710Z,16.76
2023-04-09T14:49:12.405Z,16.43
2023-04-09T14:51:39.168Z,16.26
2023-04-09T14:54:05.930Z,16.12
2023-04-09T14:56:32.459Z,15.91
2023-04-09T14:58:59.039Z,15.77
2023-04-09T15:01:26.644Z,15.68
2023-04-09T15:03:53.432Z,15.77
2023-04-09T15:06:20.605Z,15.78
2023-04-09T15:08:47.214Z,15.60
2023-04-09T15:11:18.063Z,15.55
2023-04-09T15:13:45.229Z,15.39
2023-04-09T15:16:21.192Z,15.33
2023-04-09T15:18:51.282Z,15.33
2023-04-09T15:21:18.627Z,15.12
2023-04-09T15:23:45.531Z,15.13
2023-04-09T15:26:12.509Z,15.02
2023-04-09T15:28:39.045Z,15.07
2023-04-09T15:31:05.773Z,15.13
2023-04-09T15:33:32.463Z,15.33
2023-04-09T15:35:59.412Z,15.43
2023-04-09T15:38:26.233Z,15.29
2023-04-09T15:40:53.869Z,15.32
2023-04-09T15:43:20.555Z,15.50
2023-04-09T15:45:48.425Z,15.58
2023-04-09T15:48:14.970Z,15.58
2023-04-09T15:50:41.649Z,15.58
2023-04-09T15:53:08.228Z,15.47
2023-04-09T15:55:34.698Z,15.44
2023-04-09T15:58:01.235Z,15.23
2023-04-09T16:00:28.347Z,15.13
2023-04-09T16:02:55.326Z,14.98
2023-04-09T16:05:21.916Z,14.73
2023-04-09T16:07:51.699Z,14.44
2023-04-09T16:10:19.202Z,14.16
2023-04-09T16:12:45.745Z,13.87
2023-04-09T16:15:12.402Z,13.70
2023-04-09T16:17:40.892Z,13.65
2023-04-09T16:20:08.411Z,13.31
2023-04-09T16:22:35.556Z,13.21
2023-04-09T16:25:02.104Z,13.10
2023-04-09T16:27:28.655Z,12.95
2023-04-09T16:29:55.279Z,12.87
2023-04-09T16:32:21.879Z,12.76
2023-04-09T16:34:48.477Z,12.63
2023-04-09T16:37:15.592Z,12.54
2023-04-09T16:39:42.271Z,12.50
2023-04-09T16:42:09.408Z,12.37
2023-04-09T16:44:35.957Z,12.33
2023-04-09T16:47:02.723Z,12.21
2023-04-09T16:49:29.738Z,12.15
2023-04-09T16:51:57.347Z,12.11
2023-04-09T16:54:23.961Z,11.98
2023-04-09T16:56:50.735Z,11.88
2023-04-09T16:59:21.010Z,11.79
2023-04-09T17:01:49.158Z,11.67
2023-04-09T17:04:16.173Z,11.57
2023-04-09T17:06:42.817Z,11.47
2023-04-09T17:09:09.459Z,11.35
2023-04-09T17:11:37.930Z,11.28
2023-04-09T17:14:04.797Z,11.20
2023-04-09T17:16:31.515Z,11.16
2023-04-09T17:18:58.311Z,11.09
2023-04-09T17:21:24.944Z,10.96
2023-04-09T17:23:51.424Z,10.85
2023-04-09T17:26:18.894Z,10.75
2023-04-09T17:28:46.733Z,10.63
2023-04-09T17:31:14.420Z,10.52
2023-04-09T17:33:43.815Z,10.40
2023-04-09T17:36:10.403Z,10.27
2023-04-09T17:38:36.985Z,10.14
2023-04-09T17:41:05.674Z,10.00
2023-04-09T17:43:33.521Z,9.84
2023-04-09T17:46:00.182Z,9.72
2023-04-09T17:48:26.900Z,9.59
2023-04-09T17:50:53.893Z,9.46
2023-04-09T17:53:21.361Z,9.35
2023-04-09T17:55:48.877Z,9.19
2023-04-09T17:58:15.512Z,9.10
2023-04-09T18:00:43.352Z,8.98
2023-04-09T18:03:12.081Z,8.83
2023-04-09T18:05:39.233Z,8.75
2023-04-09T18:08:06.001Z,8.60
2023-04-09T18:10:32.796Z,8.50
2023-04-09T18:12:59.405Z,8.43
2023-04-09T18:15:25.931Z,8.30
2023-04-09T18:17:52.608Z,8.21
2023-04-09T18:20:19.605Z,8.09
2023-04-09T18:22:46.341Z,7.98
2023-04-09T18:25:12.884Z,7.82
2023-04-09T18:27:39.425Z,7.77
2023-04-09T18:30:06.612Z,7.68
2023-04-09T18:32:33.530Z,7.58
2023-04-09T18:35:00.294Z,7.47
2023-04-09T18:37:26.965Z,7.41
2023-04-09T18:39:53.532Z,7.34
2023-04-09T18:42:20.213Z,7.23
2023-04-09T18:44:46.748Z,7.17
2023-04-09T18:47:13.271Z,7.10
2023-04-09T18:49:39.818Z,7.03
2023-04-09T18:52:07.712Z,6.93
2023-04-09T18:54:36.318Z,6.89
2023-04-09T18:57:05.924Z,6.83
2023-04-09T18:59:34.612Z,6.78
2023-04-09T19:02:03.624Z,6.68
2023-04-09T19:04:35.113Z,6.59
2023-04-09T19:07:02.590Z,6.51
2023-04-09T19:09:29.182Z,6.46
2023-04-09T19:11:57.080Z,6.37
2023-04-09T19:14:25.238Z,6.31
2023-04-09T19:16:51.894Z,6.27
2023-04-09T19:19:18.529Z,6.20
2023-04-09T19:21:45.089Z,6.13
2023-04-09T19:24:11.665Z,6.09
2023-04-09T19:26:38.896Z,5.96
2023-04-09T19:29:05.420Z,5.94
2023-04-09T19:31:32.362Z,5.87
2023-04-09T19:33:58.918Z,5.83
2023-04-09T19:36:25.583Z,5.79
2023-04-09T19:38:52.513Z,5.70
2023-04-09T19:41:19.281Z,5.65
2023-04-09T19:43:46.302Z,5.59
2023-04-09T19:46:13.118Z,5.51
2023-04-09T19:48:40.824Z,5.46
2023-04-09T19:51:07.489Z,5.39
2023-04-09T19:53:36.213Z,5.34
2023-04-09T19:56:03.126Z,5.27
2023-04-09T19:58:29.660Z,5.22
2023-04-09T20:00:56.442Z,5.15
2023-04-09T20:03:23.212Z,5.11
2023-04-09T20:05:49.963Z,5.11
2023-04-09T20:08:16.632Z,5.07
2023-04-09T20:10:46.265Z,4.98
2023-04-09T20:13:13.435Z,4.93
2023-04-09T20:15:40.106Z,4.85
2023-04-09T20:18:07.148Z,4.80
2023-04-09T20:20:33.797Z,4.76
2023-04-09T20:23:00.767Z,4.73
2023-04-09T20:25:33.764Z,4.71
2023-04-09T20:28:01.804Z,4.71
2023-04-09T20:30:28.298Z,4.66
2023-04-09T20:32:54.899Z,4.62
2023-04-09T20:35:21.543Z,4.54
2023-04-09T20:37:49.133Z,4.50
2023-04-09T20:40:16.302Z,4.43
2023-04-09T20:42:43.520Z,4.38
2023-04-09T20:45:10.606Z,4.36
2023-04-09T20:47:37.218Z,4.31
2023-04-09T20:50:03.962Z,4.28
2023-04-09T20:52:30.624Z,4.19
2023-04-09T20:54:57.488Z,4.16
2023-04-09T20:57:24.491Z,4.11
2023-04-09T20:59:51.125Z,4.06
2023-04-09T21:02:17.866Z,4.01
2023-04-09T21:04:44.626Z,3.98
2023-04-09T21:07:11.394Z,3.95
2023-04-09T21:09:38.248Z,3.90
2023-04-09T21:12:04.954Z,3.88
2023-04-09T21:14:31.541Z,3.85
2023-04-09T21:16:58.302Z,3.92
2023-04-09T21:19:25.076Z,3.94
2023-04-09T21:21:51.823Z,3.90
2023-04-09T21:24:18.491Z,3.85
2023-04-09T21:26:51.658Z,3.78
2023-04-09T21:29:21.068Z,3.74
2023-04-09T21:31:49.413Z,3.73
2023-04-09T21:34:16.414Z,3.66
2023-04-09T21:36:44.813Z,3.59
2023-04-09T21:39:12.273Z,3.51
2023-04-09T21:41:39.337Z,3.47
2023-04-09T21:44:08.299Z,3.44
2023-04-09T21:46:36.848Z,3.39
2023-04-09T21:49:04.540Z,3.34
2023-04-09T21:51:31.970Z,3.37
2023-04-09T21:54:16.539Z,3.39
2023-04-09T21:56:43.062Z,3.37
2023-04-09T21:59:09.709Z,3.30
2023-04-09T22:01:36.296Z,3.26
2023-04-09T22:04:03.152Z,3.24
2023-04-09T22:06:30.834Z,3.22
2023-04-09T22:08:58.344Z,3.16
2023-04-09T22:11:27.503Z,3.13
2023-04-09T22:13:56.641Z,3.06
2023-04-09T22:16:24.005Z,3.09
2023-04-09T22:18:51.744Z,3.08
2023-04-09T22:21:18.548Z,3.05
2023-04-09T22:23:45.362Z,3.05
2023-04-09T22:26:11.926Z,2.99
2023-04-09T22:28:38.597Z,2.99
2023-04-09T22:31:05.972Z,2.93
2023-04-09T22:33:32.914Z,2.88
2023-04-09T22:35:59.793Z,2.88
2023-04-09T22:38:26.533Z,2.82
2023-04-09T22:40:53.185Z,2.79
2023-04-09T22:43:19.777Z,2.74
2023-04-09T22:45:54.201Z,2.71
2023-04-09T22:48:21.885Z,2.70
2023-04-09T22:50:48.791Z,2.68
2023-04-09T22:53:18.916Z,2.64
2023-04-09T22:55:47.403Z,2.60
2023-04-09T22:58:14.217Z,2.55
2023-04-09T23:00:41.077Z,2.57
2023-04-09T23:03:07.848Z,2.54
2023-04-09T23:05:34.669Z,2.58
2023-04-09T23:08:01.226Z,2.58
2023-04-09T23:10:27.947Z,2.54
2023-04-09T23:12:54.478Z,2.50
2023-04-09T23:15:21.012Z,2.48
2023-04-09T23:17:47.589Z,2.44
2023-04-09T23:20:14.913Z,2.45
2023-04-09T23:22:43.476Z,2.42
2023-04-09T23:25:10.160Z,2.42
2023-04-09T23:27:36.735Z,2.40
2023-04-09T23:30:03.546Z,2.44
2023-04-09T23:32:30.406Z,2.40
2023-04-09T23:34:58.769Z,2.38
2023-04-09T23:37:25.852Z,2.38
2023-04-09T23:39:52.357Z,2.37
2023-04-09T23:42:18.926Z,2.36
2023-04-09T23:44:45.501Z,2.33
2023-04-09T23:47:13.653Z,2.31
2023-04-09T23:49:40.872Z,2.31
2023-04-09T23:52:07.437Z,2.30
2023-04-09T23:54:33.948Z,2.29
2023-04-09T23:57:00.533Z,2.27
2023-04-09T23:59:27.452Z,2.24
